sensor_id;sensor_type;location;lat;lon;timestamp;temperature;humidity
17565;DHT22;62994;52.126;5.596;2024-03-08T00:01:07;5.00;99.90
17565;DHT22;62994;52.126;5.596;2024-03-08T00:03:34;5.00;99.90
17565;DHT22;62994;52.126;5.596;2024-03-08T00:06:01;4.90;99.90
17565;DHT22;62994;52.126;5.596;2024-03-08T00:08:34;4.80;99.90
17565;DHT22;62994;52.126;5.596;2024-03-08T00:11:01;4.90;99.90
17565;DHT22;62994;52.126;5.596;2024-03-08T00:13:33;4.90;99.90
17565;DHT22;62994;52.126;5.596;2024-03-08T00:16:01;4.80;99.90
17565;DHT22;62994;52.126;5.596;2024-03-08T00:18:33;4.80;99.90
17565;DHT22;62994;52.126;5.596;2024-03-08T00:21:00;4.80;99.90
17565;DHT22;62994;52.126;5.596;2024-03-08T00:23:27;4.80;99.90
17565;DHT22;62994;52.126;5.596;2024-03-08T00:25:54;4.70;99.90
17565;DHT22;62994;52.126;5.596;2024-03-08T00:28:21;4.70;99.90
17565;DHT22;62994;52.126;5.596;2024-03-08T00:30:50;4.70;99.90
17565;DHT22;62994;52.126;5.596;2024-03-08T00:33:17;4.60;99.90
17565;DHT22;62994;52.126;5.596;2024-03-08T00:35:46;4.60;99.90
17565;DHT22;62994;52.126;5.596;2024-03-08T00:38:13;4.60;99.90
17565;DHT22;62994;52.126;5.596;2024-03-08T00:40:40;4.60;99.90
17565;DHT22;62994;52.126;5.596;2024-03-08T00:43:07;4.50;99.90
17565;DHT22;62994;52.126;5.596;2024-03-08T00:45:39;4.60;99.90
17565;DHT22;62994;52.126;5.596;2024-03-08T00:48:08;4.50;99.90
17565;DHT22;62994;52.126;5.596;2024-03-08T00:50:36;4.50;99.90
17565;DHT22;62994;52.126;5.596;2024-03-08T00:53:05;4.40;99.90
17565;DHT22;62994;52.126;5.596;2024-03-08T00:55:34;4.50;99.90
17565;DHT22;62994;52.126;5.596;2024-03-08T00:58:01;4.40;99.90
17565;DHT22;62994;52.126;5.596;2024-03-08T01:00:30;4.40;99.90
17565;DHT22;62994;52.126;5.596;2024-03-08T01:02:57;4.40;99.90
17565;DHT22;62994;52.126;5.596;2024-03-08T01:05:25;4.40;99.90
17565;DHT22;62994;52.126;5.596;2024-03-08T01:07:52;4.30;99.90
17565;DHT22;62994;52.126;5.596;2024-03-08T01:10:24;4.30;99.90
17565;DHT22;62994;52.126;5.596;2024-03-08T01:12:52;4.30;99.90
17565;DHT22;62994;52.126;5.596;2024-03-08T01:15:20;4.30;99.90
17565;DHT22;62994;52.126;5.596;2024-03-08T01:17:47;4.20;99.90
17565;DHT22;62994;52.126;5.596;2024-03-08T01:20:14;4.20;99.90
17565;DHT22;62994;52.126;5.596;2024-03-08T01:22:41;4.10;99.90
17565;DHT22;62994;52.126;5.596;2024-03-08T01:25:08;4.10;99.90
17565;DHT22;62994;52.126;5.596;2024-03-08T01:27:37;4.10;99.90
17565;DHT22;62994;52.126;5.596;2024-03-08T01:30:05;4.10;99.90
17565;DHT22;62994;52.126;5.596;2024-03-08T01:32:37;4.10;99.90
17565;DHT22;62994;52.126;5.596;2024-03-08T01:35:05;4.00;99.90
17565;DHT22;62994;52.126;5.596;2024-03-08T01:37:35;4.00;99.90
17565;DHT22;62994;52.126;5.596;2024-03-08T01:40:02;4.00;99.90
17565;DHT22;62994;52.126;5.596;2024-03-08T01:42:29;4.00;99.90
17565;DHT22;62994;52.126;5.596;2024-03-08T01:44:58;3.90;99.90
17565;DHT22;62994;52.126;5.596;2024-03-08T01:47:25;3.90;99.90
17565;DHT22;62994;52.126;5.596;2024-03-08T01:49:58;3.90;99.90
17565;DHT22;62994;52.126;5.596;2024-03-08T01:52:27;3.90;99.90
17565;DHT22;62994;52.126;5.596;2024-03-08T01:54:55;3.90;99.90
17565;DHT22;62994;52.126;5.596;2024-03-08T01:57:22;3.90;99.90
17565;DHT22;62994;52.126;5.596;2024-03-08T01:59:50;3.90;99.90
17565;DHT22;62994;52.126;5.596;2024-03-08T02:02:21;3.90;99.90
17565;DHT22;62994;52.126;5.596;2024-03-08T02:04:55;3.90;99.90
17565;DHT22;62994;52.126;5.596;2024-03-08T02:07:26;3.90;99.90
17565;DHT22;62994;52.126;5.596;2024-03-08T02:09:53;3.90;99.90
17565;DHT22;62994;52.126;5.596;2024-03-08T02:12:20;3.90;99.90
17565;DHT22;62994;52.126;5.596;2024-03-08T02:14:47;3.90;99.90
17565;DHT22;62994;52.126;5.596;2024-03-08T02:17:15;3.80;99.90
17565;DHT22;62994;52.126;5.596;2024-03-08T02:19:43;3.90;99.90
17565;DHT22;62994;52.126;5.596;2024-03-08T02:22:11;3.90;99.90
17565;DHT22;62994;52.126;5.596;2024-03-08T02:24:39;3.80;99.90
17565;DHT22;62994;52.126;5.596;2024-03-08T02:27:06;3.90;99.90
17565;DHT22;62994;52.126;5.596;2024-03-08T02:29:34;3.90;99.90
17565;DHT22;62994;52.126;5.596;2024-03-08T02:32:01;4.00;99.90
17565;DHT22;62994;52.126;5.596;2024-03-08T02:34:28;4.00;99.90
17565;DHT22;62994;52.126;5.596;2024-03-08T02:36:57;4.00;99.90
17565;DHT22;62994;52.126;5.596;2024-03-08T02:39:25;3.90;99.90
17565;DHT22;62994;52.126;5.596;2024-03-08T02:41:53;3.90;99.90
17565;DHT22;62994;52.126;5.596;2024-03-08T02:44:25;3.90;99.90
17565;DHT22;62994;52.126;5.596;2024-03-08T02:46:54;3.90;99.90
17565;DHT22;62994;52.126;5.596;2024-03-08T02:49:21;3.80;99.90
17565;DHT22;62994;52.126;5.596;2024-03-08T02:51:49;3.80;99.90
17565;DHT22;62994;52.126;5.596;2024-03-08T02:54:16;3.80;99.90
17565;DHT22;62994;52.126;5.596;2024-03-08T02:56:49;3.80;99.90
17565;DHT22;62994;52.126;5.596;2024-03-08T02:59:17;3.70;99.90
17565;DHT22;62994;52.126;5.596;2024-03-08T03:01:44;3.70;99.90
17565;DHT22;62994;52.126;5.596;2024-03-08T03:04:11;3.70;99.90
17565;DHT22;62994;52.126;5.596;2024-03-08T03:06:38;3.60;99.90
17565;DHT22;62994;52.126;5.596;2024-03-08T03:09:05;3.60;99.90
17565;DHT22;62994;52.126;5.596;2024-03-08T03:11:36;3.50;99.90
17565;DHT22;62994;52.126;5.596;2024-03-08T03:14:04;3.50;99.90
17565;DHT22;62994;52.126;5.596;2024-03-08T03:16:32;3.50;99.90
17565;DHT22;62994;52.126;5.596;2024-03-08T03:19:00;3.60;99.90
17565;DHT22;62994;52.126;5.596;2024-03-08T03:21:28;3.50;99.90
17565;DHT22;62994;52.126;5.596;2024-03-08T03:23:57;3.50;99.90
17565;DHT22;62994;52.126;5.596;2024-03-08T03:26:29;3.50;99.90
17565;DHT22;62994;52.126;5.596;2024-03-08T03:28:56;3.40;99.90
17565;DHT22;62994;52.126;5.596;2024-03-08T03:31:27;3.40;99.90
17565;DHT22;62994;52.126;5.596;2024-03-08T03:33:54;3.40;99.90
17565;DHT22;62994;52.126;5.596;2024-03-08T03:36:26;3.30;99.90
17565;DHT22;62994;52.126;5.596;2024-03-08T03:38:54;3.40;99.90
17565;DHT22;62994;52.126;5.596;2024-03-08T03:41:36;3.50;99.90
17565;DHT22;62994;52.126;5.596;2024-03-08T03:44:04;3.50;99.90
17565;DHT22;62994;52.126;5.596;2024-03-08T03:46:33;3.30;99.90
17565;DHT22;62994;52.126;5.596;2024-03-08T03:49:01;3.30;99.90
17565;DHT22;62994;52.126;5.596;2024-03-08T03:51:29;3.30;99.90
17565;DHT22;62994;52.126;5.596;2024-03-08T03:53:58;3.30;99.90
17565;DHT22;62994;52.126;5.596;2024-03-08T03:56:25;3.20;99.90
17565;DHT22;62994;52.126;5.596;2024-03-08T03:58:53;3.10;99.90
17565;DHT22;62994;52.126;5.596;2024-03-08T04:01:20;3.10;99.90
17565;DHT22;62994;52.126;5.596;2024-03-08T04:03:48;3.10;99.90
17565;DHT22;62994;52.126;5.596;2024-03-08T04:06:15;3.10;99.90
17565;DHT22;62994;52.126;5.596;2024-03-08T04:08:42;3.00;99.90
17565;DHT22;62994;52.126;5.596;2024-03-08T04:11:10;3.10;99.90
17565;DHT22;62994;52.126;5.596;2024-03-08T04:13:37;3.10;99.90
17565;DHT22;62994;52.126;5.596;2024-03-08T04:16:04;3.10;99.90
17565;DHT22;62994;52.126;5.596;2024-03-08T04:18:34;3.00;99.90
17565;DHT22;62994;52.126;5.596;2024-03-08T04:21:05;3.00;99.90
17565;DHT22;62994;52.126;5.596;2024-03-08T04:23:33;3.00;99.90
17565;DHT22;62994;52.126;5.596;2024-03-08T04:26:02;3.00;99.90
17565;DHT22;62994;52.126;5.596;2024-03-08T04:28:30;3.00;99.90
17565;DHT22;62994;52.126;5.596;2024-03-08T04:30:57;3.00;99.90
17565;DHT22;62994;52.126;5.596;2024-03-08T04:33:26;3.00;99.90
17565;DHT22;62994;52.126;5.596;2024-03-08T04:35:53;3.00;99.90
17565;DHT22;62994;52.126;5.596;2024-03-08T04:38:22;3.00;99.90
17565;DHT22;62994;52.126;5.596;2024-03-08T04:40:50;3.00;99.90
17565;DHT22;62994;52.126;5.596;2024-03-08T04:43:17;2.90;99.90
17565;DHT22;62994;52.126;5.596;2024-03-08T04:45:46;2.90;99.90
17565;DHT22;62994;52.126;5.596;2024-03-08T04:48:14;2.90;99.90
17565;DHT22;62994;52.126;5.596;2024-03-08T04:50:43;3.00;99.90
17565;DHT22;62994;52.126;5.596;2024-03-08T04:53:15;3.10;99.90
17565;DHT22;62994;52.126;5.596;2024-03-08T04:55:50;3.00;99.90
17565;DHT22;62994;52.126;5.596;2024-03-08T04:58:17;3.00;99.90
17565;DHT22;62994;52.126;5.596;2024-03-08T05:00:44;2.90;99.90
17565;DHT22;62994;52.126;5.596;2024-03-08T05:03:11;2.90;99.90
17565;DHT22;62994;52.126;5.596;2024-03-08T05:05:38;2.90;99.90
17565;DHT22;62994;52.126;5.596;2024-03-08T05:08:06;2.80;99.90
17565;DHT22;62994;52.126;5.596;2024-03-08T05:10:35;2.80;99.90
17565;DHT22;62994;52.126;5.596;2024-03-08T05:13:03;2.80;99.90
17565;DHT22;62994;52.126;5.596;2024-03-08T05:15:31;2.80;99.90
17565;DHT22;62994;52.126;5.596;2024-03-08T05:18:00;2.70;99.90
17565;DHT22;62994;52.126;5.596;2024-03-08T05:20:27;2.70;99.90
17565;DHT22;62994;52.126;5.596;2024-03-08T05:22:57;2.80;99.90
17565;DHT22;62994;52.126;5.596;2024-03-08T05:25:24;2.70;99.90
17565;DHT22;62994;52.126;5.596;2024-03-08T05:27:52;2.70;99.90
17565;DHT22;62994;52.126;5.596;2024-03-08T05:30:20;2.70;99.90
17565;DHT22;62994;52.126;5.596;2024-03-08T05:32:47;2.60;99.90
17565;DHT22;62994;52.126;5.596;2024-03-08T05:35:14;2.60;99.90
17565;DHT22;62994;52.126;5.596;2024-03-08T05:37:42;2.60;99.90
17565;DHT22;62994;52.126;5.596;2024-03-08T05:40:09;2.70;99.90
17565;DHT22;62994;52.126;5.596;2024-03-08T05:42:37;2.70;99.90
17565;DHT22;62994;52.126;5.596;2024-03-08T05:45:04;2.70;99.90
17565;DHT22;62994;52.126;5.596;2024-03-08T05:47:33;2.60;99.90
17565;DHT22;62994;52.126;5.596;2024-03-08T05:50:02;2.60;99.90
17565;DHT22;62994;52.126;5.596;2024-03-08T05:52:30;2.60;99.90
17565;DHT22;62994;52.126;5.596;2024-03-08T05:54:57;2.60;99.90
17565;DHT22;62994;52.126;5.596;2024-03-08T05:57:24;2.60;99.90
17565;DHT22;62994;52.126;5.596;2024-03-08T05:59:51;2.60;99.90
17565;DHT22;62994;52.126;5.596;2024-03-08T06:02:18;2.60;99.90
17565;DHT22;62994;52.126;5.596;2024-03-08T06:04:46;2.50;99.90
17565;DHT22;62994;52.126;5.596;2024-03-08T06:07:13;2.60;99.90
17565;DHT22;62994;52.126;5.596;2024-03-08T06:09:40;2.50;99.90
17565;DHT22;62994;52.126;5.596;2024-03-08T06:12:13;2.50;99.90
17565;DHT22;62994;52.126;5.596;2024-03-08T06:14:44;2.40;99.90
17565;DHT22;62994;52.126;5.596;2024-03-08T06:17:11;2.40;99.90
17565;DHT22;62994;52.126;5.596;2024-03-08T06:19:38;2.40;99.90
17565;DHT22;62994;52.126;5.596;2024-03-08T06:22:07;2.40;99.90
17565;DHT22;62994;52.126;5.596;2024-03-08T06:24:37;2.50;99.90
17565;DHT22;62994;52.126;5.596;2024-03-08T06:27:04;2.40;99.90
17565;DHT22;62994;52.126;5.596;2024-03-08T06:29:34;2.40;99.90
17565;DHT22;62994;52.126;5.596;2024-03-08T06:32:02;2.50;99.90
17565;DHT22;62994;52.126;5.596;2024-03-08T06:34:30;2.40;99.90
17565;DHT22;62994;52.126;5.596;2024-03-08T06:37:00;2.50;99.90
17565;DHT22;62994;52.126;5.596;2024-03-08T06:39:29;2.40;99.90
17565;DHT22;62994;52.126;5.596;2024-03-08T06:41:57;2.40;99.90
17565;DHT22;62994;52.126;5.596;2024-03-08T06:44:31;2.40;99.90
17565;DHT22;62994;52.126;5.596;2024-03-08T06:47:00;2.40;99.90
17565;DHT22;62994;52.126;5.596;2024-03-08T06:49:27;2.40;99.90
17565;DHT22;62994;52.126;5.596;2024-03-08T06:51:54;2.40;99.90
17565;DHT22;62994;52.126;5.596;2024-03-08T06:54:22;2.40;99.90
17565;DHT22;62994;52.126;5.596;2024-03-08T06:56:51;2.50;99.90
17565;DHT22;62994;52.126;5.596;2024-03-08T06:59:18;2.50;99.90
17565;DHT22;62994;52.126;5.596;2024-03-08T07:01:46;2.40;99.90
17565;DHT22;62994;52.126;5.596;2024-03-08T07:04:19;2.50;99.90
17565;DHT22;62994;52.126;5.596;2024-03-08T07:06:47;2.50;99.90
17565;DHT22;62994;52.126;5.596;2024-03-08T07:09:15;2.60;99.90
17565;DHT22;62994;52.126;5.596;2024-03-08T07:11:43;2.60;99.90
17565;DHT22;62994;52.126;5.596;2024-03-08T07:14:13;2.60;99.90
17565;DHT22;62994;52.126;5.596;2024-03-08T07:16:41;2.60;99.90
17565;DHT22;62994;52.126;5.596;2024-03-08T07:19:10;2.60;99.90
17565;DHT22;62994;52.126;5.596;2024-03-08T07:21:39;2.60;99.90
17565;DHT22;62994;52.126;5.596;2024-03-08T07:24:06;2.60;99.90
17565;DHT22;62994;52.126;5.596;2024-03-08T07:26:50;2.70;99.90
17565;DHT22;62994;52.126;5.596;2024-03-08T07:29:25;2.70;99.90
17565;DHT22;62994;52.126;5.596;2024-03-08T07:31:52;2.70;99.90
17565;DHT22;62994;52.126;5.596;2024-03-08T07:34:30;2.80;99.90
17565;DHT22;62994;52.126;5.596;2024-03-08T07:36:57;2.80;99.90
17565;DHT22;62994;52.126;5.596;2024-03-08T07:39:25;2.80;99.90
17565;DHT22;62994;52.126;5.596;2024-03-08T07:41:52;2.90;99.90
17565;DHT22;62994;52.126;5.596;2024-03-08T07:44:19;2.90;99.90
17565;DHT22;62994;52.126;5.596;2024-03-08T07:46:47;3.00;99.90
17565;DHT22;62994;52.126;5.596;2024-03-08T07:49:14;3.00;99.90
17565;DHT22;62994;52.126;5.596;2024-03-08T07:51:42;3.00;99.90
17565;DHT22;62994;52.126;5.596;2024-03-08T07:54:09;3.00;99.90
17565;DHT22;62994;52.126;5.596;2024-03-08T07:56:36;3.10;99.90
17565;DHT22;62994;52.126;5.596;2024-03-08T07:59:03;3.10;99.90
17565;DHT22;62994;52.126;5.596;2024-03-08T08:01:30;3.20;99.90
17565;DHT22;62994;52.126;5.596;2024-03-08T08:04:00;3.30;99.90
17565;DHT22;62994;52.126;5.596;2024-03-08T08:06:28;3.30;99.90
17565;DHT22;62994;52.126;5.596;2024-03-08T08:08:57;3.40;99.90
17565;DHT22;62994;52.126;5.596;2024-03-08T08:11:26;3.40;99.90
17565;DHT22;62994;52.126;5.596;2024-03-08T08:13:53;3.50;99.90
17565;DHT22;62994;52.126;5.596;2024-03-08T08:16:23;3.50;99.90
17565;DHT22;62994;52.126;5.596;2024-03-08T08:18:51;3.60;99.90
17565;DHT22;62994;52.126;5.596;2024-03-08T08:21:20;3.70;99.90
17565;DHT22;62994;52.126;5.596;2024-03-08T08:23:47;3.80;99.90
17565;DHT22;62994;52.126;5.596;2024-03-08T08:26:15;3.80;99.90
17565;DHT22;62994;52.126;5.596;2024-03-08T08:28:44;3.90;99.90
17565;DHT22;62994;52.126;5.596;2024-03-08T08:31:12;3.90;99.90
17565;DHT22;62994;52.126;5.596;2024-03-08T08:33:39;4.10;99.90
17565;DHT22;62994;52.126;5.596;2024-03-08T08:36:07;4.10;99.90
17565;DHT22;62994;52.126;5.596;2024-03-08T08:38:37;4.20;99.90
17565;DHT22;62994;52.126;5.596;2024-03-08T08:41:04;4.20;99.90
17565;DHT22;62994;52.126;5.596;2024-03-08T08:43:32;4.30;99.90
17565;DHT22;62994;52.126;5.596;2024-03-08T08:46:00;4.30;99.90
17565;DHT22;62994;52.126;5.596;2024-03-08T08:48:27;4.40;99.90
17565;DHT22;62994;52.126;5.596;2024-03-08T08:50:55;4.40;99.90
17565;DHT22;62994;52.126;5.596;2024-03-08T08:53:22;4.40;99.90
17565;DHT22;62994;52.126;5.596;2024-03-08T08:55:51;4.50;99.90
17565;DHT22;62994;52.126;5.596;2024-03-08T08:58:19;4.60;99.90
17565;DHT22;62994;52.126;5.596;2024-03-08T09:00:46;4.60;99.90
17565;DHT22;62994;52.126;5.596;2024-03-08T09:03:13;4.70;99.90
17565;DHT22;62994;52.126;5.596;2024-03-08T09:05:42;4.80;99.90
17565;DHT22;62994;52.126;5.596;2024-03-08T09:08:10;4.80;99.90
17565;DHT22;62994;52.126;5.596;2024-03-08T09:10:37;4.90;99.90
17565;DHT22;62994;52.126;5.596;2024-03-08T09:13:07;5.00;99.90
17565;DHT22;62994;52.126;5.596;2024-03-08T09:15:35;5.10;99.90
17565;DHT22;62994;52.126;5.596;2024-03-08T09:18:06;5.20;99.90
17565;DHT22;62994;52.126;5.596;2024-03-08T09:20:34;5.20;99.90
17565;DHT22;62994;52.126;5.596;2024-03-08T09:23:02;5.30;99.90
17565;DHT22;62994;52.126;5.596;2024-03-08T09:25:30;5.40;99.90
17565;DHT22;62994;52.126;5.596;2024-03-08T09:27:58;5.40;99.90
17565;DHT22;62994;52.126;5.596;2024-03-08T09:30:27;5.50;99.90
17565;DHT22;62994;52.126;5.596;2024-03-08T09:32:56;5.60;99.90
17565;DHT22;62994;52.126;5.596;2024-03-08T09:35:23;5.70;99.90
17565;DHT22;62994;52.126;5.596;2024-03-08T09:37:50;5.80;99.90
17565;DHT22;62994;52.126;5.596;2024-03-08T09:40:19;5.80;99.90
17565;DHT22;62994;52.126;5.596;2024-03-08T09:42:49;5.90;99.90
17565;DHT22;62994;52.126;5.596;2024-03-08T09:45:17;6.00;99.90
17565;DHT22;62994;52.126;5.596;2024-03-08T09:47:45;6.10;99.90
17565;DHT22;62994;52.126;5.596;2024-03-08T09:50:14;6.20;99.90
17565;DHT22;62994;52.126;5.596;2024-03-08T09:52:47;6.30;99.90
17565;DHT22;62994;52.126;5.596;2024-03-08T09:55:16;6.50;99.90
17565;DHT22;62994;52.126;5.596;2024-03-08T09:57:48;6.60;99.90
17565;DHT22;62994;52.126;5.596;2024-03-08T10:00:29;6.70;99.90
17565;DHT22;62994;52.126;5.596;2024-03-08T10:03:05;6.70;99.90
17565;DHT22;62994;52.126;5.596;2024-03-08T10:05:35;6.80;99.90
17565;DHT22;62994;52.126;5.596;2024-03-08T10:08:02;6.90;99.90
17565;DHT22;62994;52.126;5.596;2024-03-08T10:10:30;7.00;99.90
17565;DHT22;62994;52.126;5.596;2024-03-08T10:12:58;7.10;99.90
17565;DHT22;62994;52.126;5.596;2024-03-08T10:15:27;7.20;99.90
17565;DHT22;62994;52.126;5.596;2024-03-08T10:17:55;7.30;99.90
17565;DHT22;62994;52.126;5.596;2024-03-08T10:20:31;7.40;99.90
17565;DHT22;62994;52.126;5.596;2024-03-08T10:22:59;7.50;99.90
17565;DHT22;62994;52.126;5.596;2024-03-08T10:25:29;7.60;99.90
17565;DHT22;62994;52.126;5.596;2024-03-08T10:27:56;7.70;99.90
17565;DHT22;62994;52.126;5.596;2024-03-08T10:30:24;7.70;99.90
17565;DHT22;62994;52.126;5.596;2024-03-08T10:32:51;7.80;99.90
17565;DHT22;62994;52.126;5.596;2024-03-08T10:35:18;7.90;99.90
17565;DHT22;62994;52.126;5.596;2024-03-08T10:37:48;8.00;99.90
17565;DHT22;62994;52.126;5.596;2024-03-08T10:40:26;8.00;99.90
17565;DHT22;62994;52.126;5.596;2024-03-08T10:43:00;8.10;99.90
17565;DHT22;62994;52.126;5.596;2024-03-08T10:45:31;8.20;99.90
17565;DHT22;62994;52.126;5.596;2024-03-08T10:48:15;8.30;99.90
17565;DHT22;62994;52.126;5.596;2024-03-08T10:50:48;8.40;99.90
17565;DHT22;62994;52.126;5.596;2024-03-08T10:53:18;8.60;99.90
17565;DHT22;62994;52.126;5.596;2024-03-08T10:55:47;8.70;99.90
17565;DHT22;62994;52.126;5.596;2024-03-08T10:58:15;8.70;99.90
17565;DHT22;62994;52.126;5.596;2024-03-08T11:00:42;8.80;99.90
17565;DHT22;62994;52.126;5.596;2024-03-08T11:03:45;8.90;99.90
17565;DHT22;62994;52.126;5.596;2024-03-08T11:06:16;9.10;99.90
17565;DHT22;62994;52.126;5.596;2024-03-08T11:08:46;9.10;99.90
17565;DHT22;62994;52.126;5.596;2024-03-08T11:11:26;9.20;99.90
17565;DHT22;62994;52.126;5.596;2024-03-08T11:13:56;9.30;99.90
17565;DHT22;62994;52.126;5.596;2024-03-08T11:16:39;9.40;99.90
17565;DHT22;62994;52.126;5.596;2024-03-08T11:19:26;9.50;99.90
17565;DHT22;62994;52.126;5.596;2024-03-08T11:21:58;9.70;99.90
17565;DHT22;62994;52.126;5.596;2024-03-08T11:24:27;9.80;99.90
17565;DHT22;62994;52.126;5.596;2024-03-08T11:26:57;9.90;99.90
17565;DHT22;62994;52.126;5.596;2024-03-08T11:29:38;10.00;99.90
17565;DHT22;62994;52.126;5.596;2024-03-08T11:32:10;10.10;99.90
17565;DHT22;62994;52.126;5.596;2024-03-08T11:34:39;10.20;99.90
17565;DHT22;62994;52.126;5.596;2024-03-08T11:37:12;10.20;99.90
17565;DHT22;62994;52.126;5.596;2024-03-08T11:39:46;10.30;99.90
17565;DHT22;62994;52.126;5.596;2024-03-08T11:42:14;10.30;99.90
17565;DHT22;62994;52.126;5.596;2024-03-08T11:44:43;10.40;99.90
17565;DHT22;62994;52.126;5.596;2024-03-08T11:47:10;10.50;99.90
17565;DHT22;62994;52.126;5.596;2024-03-08T11:49:37;10.60;99.90
17565;DHT22;62994;52.126;5.596;2024-03-08T11:52:05;10.60;99.90
17565;DHT22;62994;52.126;5.596;2024-03-08T11:54:32;10.70;99.90
17565;DHT22;62994;52.126;5.596;2024-03-08T11:57:01;10.80;99.90
17565;DHT22;62994;52.126;5.596;2024-03-08T11:59:28;10.80;99.90
17565;DHT22;62994;52.126;5.596;2024-03-08T12:02:04;10.80;99.90
17565;DHT22;62994;52.126;5.596;2024-03-08T12:04:31;10.80;99.90
17565;DHT22;62994;52.126;5.596;2024-03-08T12:07:02;10.90;99.90
17565;DHT22;62994;52.126;5.596;2024-03-08T12:09:28;11.00;99.90
17565;DHT22;62994;52.126;5.596;2024-03-08T12:11:55;11.00;99.90
17565;DHT22;62994;52.126;5.596;2024-03-08T12:14:30;11.10;99.90
17565;DHT22;62994;52.126;5.596;2024-03-08T12:17:01;11.20;99.90
17565;DHT22;62994;52.126;5.596;2024-03-08T12:19:30;11.30;99.90
17565;DHT22;62994;52.126;5.596;2024-03-08T12:22:07;11.30;99.90
17565;DHT22;62994;52.126;5.596;2024-03-08T12:24:36;11.20;99.90
17565;DHT22;62994;52.126;5.596;2024-03-08T12:27:17;11.20;99.90
17565;DHT22;62994;52.126;5.596;2024-03-08T12:29:46;11.20;99.90
17565;DHT22;62994;52.126;5.596;2024-03-08T12:32:14;11.10;99.90
17565;DHT22;62994;52.126;5.596;2024-03-08T12:34:42;11.20;99.90
17565;DHT22;62994;52.126;5.596;2024-03-08T12:37:11;11.20;99.90
17565;DHT22;62994;52.126;5.596;2024-03-08T12:39:41;11.20;99.90
17565;DHT22;62994;52.126;5.596;2024-03-08T12:42:08;11.20;99.90
17565;DHT22;62994;52.126;5.596;2024-03-08T12:44:35;11.30;99.90
17565;DHT22;62994;52.126;5.596;2024-03-08T12:47:10;11.40;99.90
17565;DHT22;62994;52.126;5.596;2024-03-08T12:49:37;11.50;99.90
17565;DHT22;62994;52.126;5.596;2024-03-08T12:52:09;11.50;99.90
17565;DHT22;62994;52.126;5.596;2024-03-08T12:54:37;11.60;99.90
17565;DHT22;62994;52.126;5.596;2024-03-08T12:57:04;11.60;99.90
17565;DHT22;62994;52.126;5.596;2024-03-08T12:59:33;11.70;99.90
17565;DHT22;62994;52.126;5.596;2024-03-08T13:02:00;11.70;99.90
17565;DHT22;62994;52.126;5.596;2024-03-08T13:04:35;11.70;99.90
17565;DHT22;62994;52.126;5.596;2024-03-08T13:07:02;11.80;99.90
17565;DHT22;62994;52.126;5.596;2024-03-08T13:09:29;11.80;99.90
17565;DHT22;62994;52.126;5.596;2024-03-08T13:12:02;11.80;99.90
17565;DHT22;62994;52.126;5.596;2024-03-08T13:14:29;11.90;99.90
17565;DHT22;62994;52.126;5.596;2024-03-08T13:16:59;11.90;99.90
17565;DHT22;62994;52.126;5.596;2024-03-08T13:19:26;11.90;99.90
17565;DHT22;62994;52.126;5.596;2024-03-08T13:21:55;11.90;99.90
17565;DHT22;62994;52.126;5.596;2024-03-08T13:24:22;11.80;99.90
17565;DHT22;62994;52.126;5.596;2024-03-08T13:26:50;11.80;99.90
17565;DHT22;62994;52.126;5.596;2024-03-08T13:29:17;11.90;99.90
17565;DHT22;62994;52.126;5.596;2024-03-08T13:31:47;11.90;99.90
17565;DHT22;62994;52.126;5.596;2024-03-08T13:34:17;11.80;99.90
17565;DHT22;62994;52.126;5.596;2024-03-08T13:36:46;11.80;99.90
17565;DHT22;62994;52.126;5.596;2024-03-08T13:39:18;11.90;99.90
17565;DHT22;62994;52.126;5.596;2024-03-08T13:41:46;11.90;99.90
17565;DHT22;62994;52.126;5.596;2024-03-08T13:44:14;12.00;99.90
17565;DHT22;62994;52.126;5.596;2024-03-08T13:46:47;12.00;99.90
17565;DHT22;62994;52.126;5.596;2024-03-08T13:49:18;12.10;99.90
17565;DHT22;62994;52.126;5.596;2024-03-08T13:51:48;12.20;99.90
17565;DHT22;62994;52.126;5.596;2024-03-08T13:54:16;12.30;99.90
17565;DHT22;62994;52.126;5.596;2024-03-08T13:56:44;12.20;99.90
17565;DHT22;62994;52.126;5.596;2024-03-08T13:59:12;12.20;99.90
17565;DHT22;62994;52.126;5.596;2024-03-08T14:01:43;12.20;99.90
17565;DHT22;62994;52.126;5.596;2024-03-08T14:04:12;12.20;99.90
17565;DHT22;62994;52.126;5.596;2024-03-08T14:06:44;12.20;99.90
17565;DHT22;62994;52.126;5.596;2024-03-08T14:09:11;12.20;99.90
17565;DHT22;62994;52.126;5.596;2024-03-08T14:11:44;12.10;99.90
17565;DHT22;62994;52.126;5.596;2024-03-08T14:14:11;12.10;99.90
17565;DHT22;62994;52.126;5.596;2024-03-08T14:16:44;12.20;99.90
17565;DHT22;62994;52.126;5.596;2024-03-08T14:19:23;12.30;99.90
17565;DHT22;62994;52.126;5.596;2024-03-08T14:21:50;12.30;99.90
17565;DHT22;62994;52.126;5.596;2024-03-08T14:24:19;12.10;99.90
17565;DHT22;62994;52.126;5.596;2024-03-08T14:26:48;12.00;99.90
17565;DHT22;62994;52.126;5.596;2024-03-08T14:29:15;12.10;99.90
17565;DHT22;62994;52.126;5.596;2024-03-08T14:31:43;12.10;99.90
17565;DHT22;62994;52.126;5.596;2024-03-08T14:34:15;12.20;99.90
17565;DHT22;62994;52.126;5.596;2024-03-08T14:36:42;12.20;99.90
17565;DHT22;62994;52.126;5.596;2024-03-08T14:39:10;12.20;99.90
17565;DHT22;62994;52.126;5.596;2024-03-08T14:41:37;12.30;99.90
17565;DHT22;62994;52.126;5.596;2024-03-08T14:44:09;12.20;99.90
17565;DHT22;62994;52.126;5.596;2024-03-08T14:46:41;12.20;99.90
17565;DHT22;62994;52.126;5.596;2024-03-08T14:49:09;12.10;99.90
17565;DHT22;62994;52.126;5.596;2024-03-08T14:51:36;12.10;99.90
17565;DHT22;62994;52.126;5.596;2024-03-08T14:54:03;12.10;99.90
17565;DHT22;62994;52.126;5.596;2024-03-08T14:56:32;12.00;99.90
17565;DHT22;62994;52.126;5.596;2024-03-08T14:59:00;11.70;99.90
17565;DHT22;62994;52.126;5.596;2024-03-08T15:01:38;11.60;99.90
17565;DHT22;62994;52.126;5.596;2024-03-08T15:04:09;11.60;99.90
17565;DHT22;62994;52.126;5.596;2024-03-08T15:06:37;11.50;99.90
17565;DHT22;62994;52.126;5.596;2024-03-08T15:09:05;11.40;99.90
17565;DHT22;62994;52.126;5.596;2024-03-08T15:11:38;11.40;99.90
17565;DHT22;62994;52.126;5.596;2024-03-08T15:14:05;11.30;99.90
17565;DHT22;62994;52.126;5.596;2024-03-08T15:16:37;11.10;99.90
17565;DHT22;62994;52.126;5.596;2024-03-08T15:19:05;11.20;99.90
17565;DHT22;62994;52.126;5.596;2024-03-08T15:21:32;11.10;99.90
17565;DHT22;62994;52.126;5.596;2024-03-08T15:24:00;11.00;99.90
17565;DHT22;62994;52.126;5.596;2024-03-08T15:26:28;11.00;99.90
17565;DHT22;62994;52.126;5.596;2024-03-08T15:29:11;10.90;99.90
17565;DHT22;62994;52.126;5.596;2024-03-08T15:31:40;10.90;99.90
17565;DHT22;62994;52.126;5.596;2024-03-08T15:34:08;10.90;99.90
17565;DHT22;62994;52.126;5.596;2024-03-08T15:36:37;10.90;99.90
17565;DHT22;62994;52.126;5.596;2024-03-08T15:39:08;10.90;99.90
17565;DHT22;62994;52.126;5.596;2024-03-08T15:41:36;10.80;99.90
17565;DHT22;62994;52.126;5.596;2024-03-08T15:44:10;10.90;99.90
17565;DHT22;62994;52.126;5.596;2024-03-08T15:46:40;10.90;99.90
17565;DHT22;62994;52.126;5.596;2024-03-08T15:49:07;10.90;99.90
17565;DHT22;62994;52.126;5.596;2024-03-08T15:51:36;10.80;99.90
17565;DHT22;62994;52.126;5.596;2024-03-08T15:54:09;10.80;99.90